LOWL 200050Z AUTO VRB02KT 9999 //////CB FEW016 SCT080 17/14 Q1023 RESHRA LOWL 200020Z AUTO 23003KT 140V280 9999 //////CB 17/13 Q1023 LOWL 192350Z AUTO 30008KT 9999 VCTS //////CB 17/13 Q1023 LOWL 192320Z AUTO 29004KT 9999 //////CB 17/14 Q1022 LOWL 192250Z AUTO VRB02KT 9999 //////CB 17/13 Q1022 LOWL 192220Z AUTO VRB01KT 9999 NCD 17/13 Q1022 LOWL 192150Z AUTO VRB02KT 9999 NCD 18/13 Q1022 LOWL 192120Z AUTO 00000KT 9999 NCD 19/12 Q1022 LOWL 192050Z AUTO 06002KT CAVOK 19/12 Q1021 NOSIG LOWL 192020Z AUTO 04004KT CAVOK 21/12 Q1021 NOSIG LOWL 191950Z AUTO 05003KT CAVOK 20/13 Q1021 NOSIG LOWL 191920Z AUTO 04005KT CAVOK 21/13 Q1021 NOSIG LOWL 191850Z AUTO 06003KT CAVOK 22/13 Q1021 NOSIG LOWL 191820Z AUTO 07004KT CAVOK 23/12 Q1021 NOSIG LOWL 191750Z AUTO 09002KT CAVOK 24/13 Q1021 NOSIG LOWL 191720Z AUTO 10003KT CAVOK 26/12 Q1021 NOSIG LOWL 191650Z AUTO 10004KT CAVOK 26/12 Q1021 NOSIG LOWL 191620Z AUTO 10005KT 060V130 CAVOK 26/13 Q1021 NOSIG LOWL 191550Z AUTO 11005KT 070V140 CAVOK 26/12 Q1021 NOSIG LOWL 191520Z AUTO 11005KT CAVOK 26/12 Q1021 NOSIG LOWL 191450Z AUTO 11003KT 060V170 CAVOK 26/13 Q1022 NOSIG LOWL 191420Z AUTO 12004KT 060V180 CAVOK 26/13 Q1022 NOSIG LOWL 191350Z AUTO 11005KT 060V150 CAVOK 26/12 Q1022 NOSIG LOWL 191320Z AUTO 08004KT 040V150 CAVOK 26/13 Q1022 NOSIG LOWL 191250Z AUTO 10004KT 030V150 CAVOK 26/12 Q1022 NOSIG LOWL 191220Z AUTO 08005KT 040V170 CAVOK 25/11 Q1023 NOSIG LOWL 191150Z AUTO 11005KT 050V160 CAVOK 24/10 Q1023 NOSIG LOWL 191120Z AUTO 11006KT 060V180 CAVOK 23/11 Q1023 NOSIG LOWL 191050Z AUTO 09006KT 050V130 CAVOK 23/10 Q1023 NOSIG LOWL 191020Z AUTO 11005KT 070V150 CAVOK 21/09 Q1024 NOSIG LOWL 190950Z AUTO 09006KT 040V150 CAVOK 21/10 Q1024 NOSIG LOWL 190920Z AUTO 11004KT 040V180 CAVOK 20/10 Q1024 NOSIG LOWL 190850Z AUTO 11007KT 080V140 CAVOK 19/08 Q1024 NOSIG LOWL 190820Z AUTO 09006KT 050V140 CAVOK 18/08 Q1024 NOSIG LOWL 190750Z AUTO 11006KT 050V160 CAVOK 18/07 Q1024 NOSIG LOWL 190720Z AUTO 09008KT 040V110 CAVOK 16/05 Q1024 NOSIG LOWL 190650Z AUTO 08005KT 050V110 CAVOK 15/05 Q1024 NOSIG LOWL 190620Z AUTO 11004KT 070V150 CAVOK 14/05 Q1024 NOSIG LOWL 190550Z AUTO 11005KT 070V130 CAVOK 14/04 Q1024 NOSIG LOWL 190520Z AUTO 10007KT CAVOK 13/04 Q1024 NOSIG LOWL 190450Z AUTO 10006KT CAVOK 12/03 Q1024 NOSIG LOWL 190420Z AUTO 10005KT CAVOK 11/03 Q1024 NOSIG LOWL 190350Z AUTO 09005KT CAVOK 10/03 Q1024 NOSIG LOWL 190320Z AUTO 10006KT CAVOK 10/02 Q1024 NOSIG LOWL 190250Z AUTO 11005KT 9999 NCD 10/02 Q1024 LOWL 190220Z AUTO 12005KT 9999 NCD 10/02 Q1024 LOWL 190150Z AUTO 11005KT 9999 NCD 10/03 Q1024 LOWL 190120Z AUTO 12005KT 9999 NCD 11/02 Q1025 LOWL 190050Z AUTO 11005KT 9999 NCD 11/03 Q1025 LOWL 190020Z AUTO 11005KT 9999 NCD 11/03 Q1025 LOWL 182350Z AUTO 11004KT 9999 NCD 12/03 Q1025 LOWL 182320Z AUTO 10006KT 9999 NCD 12/04 Q1025 LOWL 182250Z AUTO 11005KT 9999 NCD 13/05 Q1025 LOWL 182220Z AUTO 10006KT 9999 NCD 13/06 Q1025 LOWL 182150Z AUTO 09006KT 9999 NCD 13/07 Q1025 LOWL 182120Z AUTO 09006KT 9999 NCD 14/06 Q1026 LOWL 182050Z AUTO 10007KT CAVOK 15/06 Q1026 NOSIG LOWL 182020Z AUTO 10006KT CAVOK 16/06 Q1026 NOSIG LOWL 181950Z AUTO 11008KT CAVOK 17/06 Q1026 NOSIG LOWL 181920Z AUTO 11009KT CAVOK 17/05 Q1025 NOSIG LOWL 181850Z AUTO 10010KT CAVOK 18/05 Q1025 NOSIG LOWL 181820Z AUTO 10008KT CAVOK 18/05 Q1025 NOSIG LOWL 181750Z AUTO 11008KT CAVOK 19/05 Q1025 NOSIG LOWL 181720Z AUTO 11009KT 9999 FEW060 20/04 Q1025 NOSIG LOWL 181650Z AUTO 10011KT 9999 FEW060 21/04 Q1025 NOSIG LOWL 181620Z AUTO 11010KT 9999 FEW050 21/02 Q1025 NOSIG LOWL 181550Z AUTO 10010KT 9999 FEW050 21/02 Q1025 NOSIG LOWL 181520Z AUTO 09012KT 9999 FEW050 21/05 Q1025 NOSIG LOWL 181450Z AUTO 12010KT 9999 FEW050 21/06 Q1025 NOSIG LOWL 181420Z AUTO 11010KT 9999 FEW050 22/08 Q1025 NOSIG LOWL 181350Z AUTO 11010KT 9999 FEW050 21/08 Q1025 NOSIG

METAR Messwerte "LINZ (CIV/MIL)" LOWL

Zurück zur Übersicht

Ortsname
Ländercode / m ü. NN
Zeit Temperatur Taupunkt Rel.
Luftfeuchte
Luftdruck:
Altimeter
NN
Station
Wind in Beaufort
(Knoten)
Sichtweite
(Meter)
Wolken
(Meter über Grund)
Wettererscheinung
LINZ (CIV/MIL)
AT 290
Fr 20.05. 02:50171482 %1023
1023
988
Uml 1 (2)>= 10000Wolkig (2400)
Leicht bewölkt (490)
 
LINZ (CIV/MIL)
AT 290
Fr 20.05. 02:20171377 %1023
1023
988
SW 2 (3)
SO - W
>= 10000  
LINZ (CIV/MIL)
AT 290
Fr 20.05. 01:50171377 %1023
1023
988
WNW 3 (8)>= 10000  
LINZ (CIV/MIL)
AT 290
Fr 20.05. 01:20171482 %1022
1022
987
WNW 2 (4)>= 10000  
LINZ (CIV/MIL)
AT 290
Fr 20.05. 00:50171377 %1022
1022
987
Uml 1 (2)>= 10000  
LINZ (CIV/MIL)
AT 290
Fr 20.05. 00:20171377 %1022
1022
987
Uml 1 (1)>= 10000  
LINZ (CIV/MIL)
AT 290
Do 19.05. 23:50181373 %1022
1022
987
Uml 1 (2)>= 10000  
LINZ (CIV/MIL)
AT 290
Do 19.05. 23:20191264 %1022
1022
987
Windstill>= 10000  
LINZ (CIV/MIL)
AT 290
Do 19.05. 22:50191264 %1021
1021
986
ONO 1 (2)>= 10000Nicht signifikant 
LINZ (CIV/MIL)
AT 290
Do 19.05. 22:20211256 %1021
1020
986
NO 2 (4)>= 10000Nicht signifikant 
LINZ (CIV/MIL)
AT 290
Do 19.05. 21:50201364 %1021
1020
986
NO 2 (3)>= 10000Nicht signifikant 
LINZ (CIV/MIL)
AT 290
Do 19.05. 21:20211360 %1021
1020
986
NO 2 (5)>= 10000Nicht signifikant 
LINZ (CIV/MIL)
AT 290
Do 19.05. 20:50221357 %1021
1020
986
ONO 2 (3)>= 10000Nicht signifikant 
LINZ (CIV/MIL)
AT 290
Do 19.05. 20:20231250 %1021
1020
986
ONO 2 (4)>= 10000Nicht signifikant 
LINZ (CIV/MIL)
AT 290
Do 19.05. 19:50241350 %1021
1020
986
O 1 (2)>= 10000Nicht signifikant 
LINZ (CIV/MIL)
AT 290
Do 19.05. 19:20261242 %1021
1020
986
O 2 (3)>= 10000Nicht signifikant 
LINZ (CIV/MIL)
AT 290
Do 19.05. 18:50261242 %1021
1020
986
O 2 (4)>= 10000Nicht signifikant 
LINZ (CIV/MIL)
AT 290
Do 19.05. 18:20261345 %1021
1020
986
O 2 (5)
ONO - SO
>= 10000Nicht signifikant 
LINZ (CIV/MIL)
AT 290
Do 19.05. 17:50261242 %1021
1020
986
OSO 2 (5)
ONO - SO
>= 10000Nicht signifikant 
LINZ (CIV/MIL)
AT 290
Do 19.05. 17:20261242 %1021
1020
986
OSO 2 (5)>= 10000Nicht signifikant 
LINZ (CIV/MIL)
AT 290
Do 19.05. 16:50261345 %1022
1021
987
OSO 2 (3)
ONO - S
>= 10000Nicht signifikant 
LINZ (CIV/MIL)
AT 290
Do 19.05. 16:20261345 %1022
1021
987
OSO 2 (4)
ONO - S
>= 10000Nicht signifikant 
LINZ (CIV/MIL)
AT 290
Do 19.05. 15:50261242 %1022
1021
987
OSO 2 (5)
ONO - SSO
>= 10000Nicht signifikant 
LINZ (CIV/MIL)
AT 290
Do 19.05. 15:20261345 %1022
1021
987
O 2 (4)
NO - SSO
>= 10000Nicht signifikant 
LINZ (CIV/MIL)
AT 290
Do 19.05. 14:50261242 %1022
1021
987
O 2 (4)
NNO - SSO
>= 10000Nicht signifikant 
LINZ (CIV/MIL)
AT 290
Do 19.05. 14:20251141 %1023
1022
988
O 2 (5)
NO - S
>= 10000Nicht signifikant 
LINZ (CIV/MIL)
AT 290
Do 19.05. 13:50241041 %1023
1022
988
OSO 2 (5)
NO - SSO
>= 10000Nicht signifikant 
LINZ (CIV/MIL)
AT 290
Do 19.05. 13:20231147 %1023
1022
988
OSO 2 (6)
ONO - S
>= 10000Nicht signifikant 
LINZ (CIV/MIL)
AT 290
Do 19.05. 12:50231044 %1023
1022
988
O 2 (6)
NO - SO
>= 10000Nicht signifikant 
LINZ (CIV/MIL)
AT 290
Do 19.05. 12:2021946 %1024
1023
989
OSO 2 (5)
ONO - SSO
>= 10000Nicht signifikant 
LINZ (CIV/MIL)
AT 290
Do 19.05. 11:50211049 %1024
1023
989
O 2 (6)
NO - SSO
>= 10000Nicht signifikant 
LINZ (CIV/MIL)
AT 290
Do 19.05. 11:20201053 %1024
1023
989
OSO 2 (4)
NO - S
>= 10000Nicht signifikant 
LINZ (CIV/MIL)
AT 290
Do 19.05. 10:5019849 %1024
1024
989
OSO 3 (7)
O - SO
>= 10000Nicht signifikant 
LINZ (CIV/MIL)
AT 290
Do 19.05. 10:2018852 %1024
1024
989
O 2 (6)
NO - SO
>= 10000Nicht signifikant 
LINZ (CIV/MIL)
AT 290
Do 19.05. 09:5018749 %1024
1024
989
OSO 2 (6)
NO - SSO
>= 10000Nicht signifikant 
LINZ (CIV/MIL)
AT 290
Do 19.05. 09:2016548 %1024
1024
989
O 3 (8)
NO - OSO
>= 10000Nicht signifikant 
LINZ (CIV/MIL)
AT 290
Do 19.05. 08:5015551 %1024
1024
989
O 2 (5)
NO - OSO
>= 10000Nicht signifikant 
LINZ (CIV/MIL)
AT 290
Do 19.05. 08:2014555 %1024
1024
989
OSO 2 (4)
ONO - SSO
>= 10000Nicht signifikant 
LINZ (CIV/MIL)
AT 290
Do 19.05. 07:5014451 %1024
1024
989
OSO 2 (5)
ONO - SO
>= 10000Nicht signifikant 
LINZ (CIV/MIL)
AT 290
Do 19.05. 07:2013454 %1024
1024
989
O 3 (7)>= 10000Nicht signifikant 
LINZ (CIV/MIL)
AT 290
Do 19.05. 06:5012354 %1024
1024
989
O 2 (6)>= 10000Nicht signifikant 
LINZ (CIV/MIL)
AT 290
Do 19.05. 06:2011358 %1024
1025
989
O 2 (5)>= 10000Nicht signifikant 
LINZ (CIV/MIL)
AT 290
Do 19.05. 05:5010362 %1024
1025
989
O 2 (5)>= 10000Nicht signifikant 
LINZ (CIV/MIL)
AT 290
Do 19.05. 05:2010257 %1024
1025
989
O 2 (6)>= 10000Nicht signifikant 
LINZ (CIV/MIL)
AT 290
Do 19.05. 04:5010257 %1024
1025
989
OSO 2 (5)>= 10000  
LINZ (CIV/MIL)
AT 290
Do 19.05. 04:2010257 %1024
1025
989
OSO 2 (5)>= 10000  
LINZ (CIV/MIL)
AT 290
Do 19.05. 03:5010362 %1024
1025
989
OSO 2 (5)>= 10000  
LINZ (CIV/MIL)
AT 290
Do 19.05. 03:2011254 %1025
1026
990
OSO 2 (5)>= 10000  
LINZ (CIV/MIL)
AT 290
Do 19.05. 02:5011358 %1025
1026
990
OSO 2 (5)>= 10000  
LINZ (CIV/MIL)
AT 290
Do 19.05. 02:2011358 %1025
1026
990
OSO 2 (5)>= 10000  
LINZ (CIV/MIL)
AT 290
Do 19.05. 01:5012354 %1025
1025
990
OSO 2 (4)>= 10000  
LINZ (CIV/MIL)
AT 290
Do 19.05. 01:2012458 %1025
1025
990
O 2 (6)>= 10000  
LINZ (CIV/MIL)
AT 290
Do 19.05. 00:5013558 %1025
1025
990
OSO 2 (5)>= 10000  
LINZ (CIV/MIL)
AT 290
Do 19.05. 00:2013662 %1025
1025
990
O 2 (6)>= 10000  
LINZ (CIV/MIL)
AT 290
Mi 18.05. 23:5013767 %1025
1025
990
O 2 (6)>= 10000  
LINZ (CIV/MIL)
AT 290
Mi 18.05. 23:2014658 %1026
1026
991
O 2 (6)>= 10000  
LINZ (CIV/MIL)
AT 290
Mi 18.05. 22:5015655 %1026
1026
991
O 3 (7)>= 10000Nicht signifikant 
LINZ (CIV/MIL)
AT 290
Mi 18.05. 22:2016651 %1026
1026
991
O 2 (6)>= 10000Nicht signifikant 
LINZ (CIV/MIL)
AT 290
Mi 18.05. 21:5017648 %1026
1026
991
OSO 3 (8)>= 10000Nicht signifikant 
LINZ (CIV/MIL)
AT 290
Mi 18.05. 21:2017545 %1025
1025
990
OSO 3 (9)>= 10000Nicht signifikant 
LINZ (CIV/MIL)
AT 290
Mi 18.05. 20:5018542 %1025
1025
990
O 3 (10)>= 10000Nicht signifikant 
LINZ (CIV/MIL)
AT 290
Mi 18.05. 20:2018542 %1025
1025
990
O 3 (8)>= 10000Nicht signifikant 
LINZ (CIV/MIL)
AT 290
Mi 18.05. 19:5019540 %1025
1025
990
OSO 3 (8)>= 10000Nicht signifikant 
LINZ (CIV/MIL)
AT 290
Mi 18.05. 19:2020435 %1025
1024
990
OSO 3 (9)>= 10000Leicht bewölkt (1800) 
LINZ (CIV/MIL)
AT 290
Mi 18.05. 18:5021433 %1025
1024
990
O 4 (11)>= 10000Leicht bewölkt (1800) 
LINZ (CIV/MIL)
AT 290
Mi 18.05. 18:2021228 %1025
1024
990
OSO 3 (10)>= 10000Leicht bewölkt (1500) 
LINZ (CIV/MIL)
AT 290
Mi 18.05. 17:5021228 %1025
1024
990
O 3 (10)>= 10000Leicht bewölkt (1500) 
LINZ (CIV/MIL)
AT 290
Mi 18.05. 17:2021535 %1025
1024
990
O 4 (12)>= 10000Leicht bewölkt (1500) 
LINZ (CIV/MIL)
AT 290
Mi 18.05. 16:5021638 %1025
1024
990
OSO 3 (10)>= 10000Leicht bewölkt (1500) 
LINZ (CIV/MIL)
AT 290
Mi 18.05. 16:2022841 %1025
1024
990
OSO 3 (10)>= 10000Leicht bewölkt (1500) 
LINZ (CIV/MIL)
AT 290
Mi 18.05. 15:5021843 %1025
1024
990
OSO 3 (10)>= 10000Leicht bewölkt (1500) 

Altimeter: Einstellung am Altimeter (Höhenmesser), die Höhe 0 muss auf diesen Luftdruckwert zeigen, damit das Gerät die Stationshöhe richtig anzeigt.

NN: Luftdruck reduziert auf "Normal Null", auf Meereshöhe, dieser von der Temperatur abhängige Wert wird bisweilen unkorrekt einfach als "Luftdruck" bezeichnet. Eigentlich nur eine fiktive Größe, die es erlaubt, Stationen auf unterschiedlichen Höhen miteinander zu vergleichen.

Station: Realer Luftdruck an der Station.